Time;durP1;ratioP1;P1;durP2;ratioP2;P2;SDS_P1;SDS_P2;PMS_P1;PMS_P2;Temp;Humidity;BMP_temperature;BMP_pressure;BME280_temperature;BME280_humidity;BME280_pressure;Samples;Min_cycle;Max_cycle;Signal;HPM_P1;HPM_P2
2022/03/14 00:00:45;;;;;;;37.72;17.60;;;;;;;;;;6247802;28;20091;-66
2022/03/14 00:03:50;;;;;;;47.83;20.05;;;;;;;;;;6246944;28;20108;-66
2022/03/14 00:06:51;;;;;;;47.50;18.45;;;;;;;;;;6247264;28;20053;-66
2022/03/14 00:09:52;;;;;;;42.05;20.65;;;;;;;;;;6245803;28;20032;-66
2022/03/14 00:12:55;;;;;;;50.20;21.48;;;;;;;;;;6224701;28;20022;-66
2022/03/14 00:15:57;;;;;;;43.85;20.55;;;;;;;;;;6247681;28;20036;-66
2022/03/14 00:18:58;;;;;;;51.05;21.73;;;;;;;;;;6247404;28;20021;-66
2022/03/14 00:21:59;;;;;;;43.80;20.58;;;;;;;;;;6228698;28;20025;-66
2022/03/14 00:24:59;;;;;;;40.78;21.83;;;;;;;;;;6247101;28;20033;-66
2022/03/14 00:27:59;;;;;;;51.15;20.20;;;;;;;;;;6245159;28;20024;-66
2022/03/14 00:31:00;;;;;;;38.58;19.05;;;;;;;;;;6237174;28;20503;-66
2022/03/14 00:34:00;;;;;;;47.45;20.88;;;;;;;;;;6227675;28;20485;-66
2022/03/14 00:37:01;;;;;;;40.10;20.55;;;;;;;;;;6222875;28;20025;-66
2022/03/14 00:40:02;;;;;;;44.88;19.33;;;;;;;;;;6237202;28;20092;-66
2022/03/14 00:43:03;;;;;;;51.30;20.55;;;;;;;;;;6246296;28;20025;-66
2022/03/14 00:46:03;;;;;;;50.28;20.77;;;;;;;;;;6246702;28;20484;-66
2022/03/14 00:49:03;;;;;;;54.58;21.40;;;;;;;;;;6246397;28;20112;-66
2022/03/14 00:52:04;;;;;;;49.75;22.27;;;;;;;;;;6245980;28;20026;-66
2022/03/14 00:55:04;;;;;;;52.05;20.38;;;;;;;;;;6228349;28;20175;-66
2022/03/14 00:58:05;;;;;;;54.47;22.48;;;;;;;;;;6246799;28;20175;-66
2022/03/14 01:01:05;;;;;;;55.10;24.48;;;;;;;;;;6246817;28;20059;-65
2022/03/14 01:04:05;;;;;;;46.72;20.35;;;;;;;;;;6245693;28;20018;-65
2022/03/14 01:07:05;;;;;;;46.30;19.25;;;;;;;;;;6246098;28;20018;-65
2022/03/14 01:10:06;;;;;;;48.90;21.67;;;;;;;;;;6242026;28;20020;-65
2022/03/14 01:13:09;;;;;;;48.85;21.67;;;;;;;;;;6221282;28;20487;-65
2022/03/14 01:16:10;;;;;;;51.97;22.40;;;;;;;;;;6221300;28;20057;-65
2022/03/14 01:19:11;;;;;;;55.85;23.75;;;;;;;;;;6234378;28;20027;-66
2022/03/14 01:22:11;;;;;;;52.30;23.55;;;;;;;;;;6227462;28;20534;-66
2022/03/14 01:25:11;;;;;;;43.58;24.95;;;;;;;;;;6245952;28;20489;-66
2022/03/14 01:28:12;;;;;;;47.95;19.50;;;;;;;;;;6245211;28;20017;-66
2022/03/14 01:31:12;;;;;;;44.67;21.38;;;;;;;;;;6246029;28;20025;-66
2022/03/14 01:34:14;;;;;;;56.58;23.33;;;;;;;;;;6244735;28;20043;-66
2022/03/14 01:37:18;;;;;;;51.28;22.30;;;;;;;;;;6245995;28;20061;-66
2022/03/14 01:40:19;;;;;;;50.85;24.98;;;;;;;;;;6245245;28;20671;-66
2022/03/14 01:43:21;;;;;;;55.30;24.33;;;;;;;;;;6245244;28;20072;-66
2022/03/14 01:46:22;;;;;;;54.78;24.90;;;;;;;;;;6227317;28;20250;-66
2022/03/14 01:49:23;;;;;;;49.83;22.50;;;;;;;;;;6244901;28;20057;-66
2022/03/14 01:52:23;;;;;;;58.88;25.23;;;;;;;;;;6244407;28;20570;-66
2022/03/14 01:55:23;;;;;;;59.22;25.50;;;;;;;;;;6244424;28;20401;-66
2022/03/14 01:58:24;;;;;;;47.50;22.20;;;;;;;;;;6245525;28;20392;-66
2022/03/14 02:01:25;;;;;;;52.05;25.05;;;;;;;;;;6245047;28;20029;-66
2022/03/14 02:04:25;;;;;;;48.00;24.15;;;;;;;;;;6244745;28;20389;-65
2022/03/14 02:07:25;;;;;;;52.78;22.95;;;;;;;;;;6244642;28;20032;-65
2022/03/14 02:10:25;;;;;;;52.22;23.92;;;;;;;;;;6237771;28;20582;-65
2022/03/14 02:13:26;;;;;;;46.15;23.35;;;;;;;;;;6219691;28;20026;-65
2022/03/14 02:16:26;;;;;;;51.00;24.50;;;;;;;;;;6220186;28;20428;-65
2022/03/14 02:19:26;;;;;;;38.58;18.50;;;;;;;;;;6233704;28;20032;-65
2022/03/14 02:22:27;;;;;;;54.15;25.60;;;;;;;;;;6244117;28;20464;-66
2022/03/14 02:25:27;;;;;;;36.42;17.67;;;;;;;;;;6244138;28;20025;-65
2022/03/14 02:28:27;;;;;;;50.53;24.15;;;;;;;;;;6244102;28;20052;-65
2022/03/14 02:31:28;;;;;;;46.90;24.23;;;;;;;;;;6236550;28;20026;-65
2022/03/14 02:34:28;;;;;;;52.50;25.35;;;;;;;;;;6240619;28;20465;-65
2022/03/14 02:37:28;;;;;;;56.15;26.17;;;;;;;;;;6243817;28;20026;-65
2022/03/14 02:40:28;;;;;;;65.30;27.75;;;;;;;;;;6243681;28;20013;-65
2022/03/14 02:43:28;;;;;;;45.55;22.58;;;;;;;;;;6243409;28;20411;-65
2022/03/14 02:46:29;;;;;;;47.15;22.23;;;;;;;;;;6243447;28;20029;-65
2022/03/14 02:49:30;;;;;;;52.33;25.85;;;;;;;;;;6243575;28;20023;-65
2022/03/14 02:52:30;;;;;;;53.92;26.40;;;;;;;;;;6242853;28;20046;-65
2022/03/14 02:55:30;;;;;;;56.63;26.52;;;;;;;;;;6243500;28;20140;-65
2022/03/14 02:58:32;;;;;;;43.75;20.77;;;;;;;;;;6244432;28;20634;-65
2022/03/14 03:01:33;;;;;;;52.22;24.42;;;;;;;;;;6243524;28;20021;-64
2022/03/14 03:04:33;;;;;;;61.80;25.15;;;;;;;;;;6243596;28;20104;-64
2022/03/14 03:07:35;;;;;;;43.75;22.85;;;;;;;;;;6243144;28;20036;-64
2022/03/14 03:10:35;;;;;;;37.60;18.17;;;;;;;;;;6236115;28;20091;-64
2022/03/14 03:13:36;;;;;;;53.17;22.00;;;;;;;;;;6218750;28;20025;-64
2022/03/14 03:16:38;;;;;;;54.83;25.27;;;;;;;;;;6234901;28;20021;-64
2022/03/14 03:19:38;;;;;;;58.75;25.70;;;;;;;;;;6243661;28;20041;-64
2022/03/14 03:22:39;;;;;;;46.97;22.02;;;;;;;;;;6242950;28;20014;-65
2022/03/14 03:25:39;;;;;;;51.15;24.42;;;;;;;;;;6242937;28;20488;-65
2022/03/14 03:28:39;;;;;;;53.97;25.88;;;;;;;;;;6243149;28;20105;-64
2022/03/14 03:31:39;;;;;;;58.00;24.77;;;;;;;;;;6243690;28;20531;-65
2022/03/14 03:34:40;;;;;;;56.47;24.38;;;;;;;;;;6226515;28;20073;-62
2022/03/14 03:37:40;;;;;;;51.97;24.23;;;;;;;;;;6241072;28;20022;-62
2022/03/14 03:40:41;;;;;;;50.80;24.83;;;;;;;;;;6224667;28;20024;-62
2022/03/14 03:43:41;;;;;;;49.80;23.65;;;;;;;;;;6242449;28;20104;-62
2022/03/14 03:46:41;;;;;;;47.85;25.00;;;;;;;;;;6239083;28;20030;-64
2022/03/14 03:49:42;;;;;;;49.17;23.02;;;;;;;;;;6218239;28;20014;-63
2022/03/14 03:52:42;;;;;;;51.53;24.60;;;;;;;;;;6221132;28;20072;-63
2022/03/14 03:55:42;;;;;;;58.13;23.65;;;;;;;;;;6244091;28;20131;-63
2022/03/14 03:58:43;;;;;;;40.00;17.67;;;;;;;;;;6239331;28;20098;-64
2022/03/14 04:01:43;;;;;;;43.53;18.33;;;;;;;;;;6234899;28;20067;-64
2022/03/14 04:04:44;;;;;;;42.83;22.75;;;;;;;;;;6242863;28;20030;-64
2022/03/14 04:07:44;;;;;;;48.53;23.05;;;;;;;;;;6243377;28;20013;-64
2022/03/14 04:10:47;;;;;;;40.78;23.77;;;;;;;;;;6242550;28;20439;-64
2022/03/14 04:13:48;;;;;;;45.35;23.13;;;;;;;;;;6242168;28;20021;-64
2022/03/14 04:16:48;;;;;;;50.75;22.35;;;;;;;;;;6242760;28;20096;-64
2022/03/14 04:19:48;;;;;;;52.35;25.95;;;;;;;;;;6228460;28;20477;-64
2022/03/14 04:22:49;;;;;;;51.70;25.02;;;;;;;;;;6246806;28;20377;-65
2022/03/14 04:25:49;;;;;;;57.72;24.17;;;;;;;;;;6247043;28;20013;-64
2022/03/14 04:28:50;;;;;;;47.53;23.92;;;;;;;;;;6246271;28;20088;-64
2022/03/14 04:31:50;;;;;;;51.65;25.02;;;;;;;;;;6239268;28;20025;-64
2022/03/14 04:34:51;;;;;;;59.33;25.23;;;;;;;;;;6224800;28;20022;-64
2022/03/14 04:37:51;;;;;;;52.53;25.63;;;;;;;;;;6222313;28;20018;-64
2022/03/14 04:40:51;;;;;;;53.03;26.38;;;;;;;;;;6222683;28;20025;-64
2022/03/14 04:43:51;;;;;;;57.67;23.33;;;;;;;;;;6243870;28;20362;-64
2022/03/14 04:46:52;;;;;;;56.95;24.50;;;;;;;;;;6246321;28;20457;-64
2022/03/14 04:49:52;;;;;;;33.80;15.93;;;;;;;;;;6246799;28;20056;-64
2022/03/14 04:52:52;;;;;;;51.15;24.23;;;;;;;;;;6245489;28;20041;-64
2022/03/14 04:55:53;;;;;;;65.10;27.80;;;;;;;;;;6245914;28;20310;-64
2022/03/14 04:58:53;;;;;;;61.47;28.75;;;;;;;;;;6245445;28;20028;-64
2022/03/14 05:01:53;;;;;;;64.20;27.80;;;;;;;;;;6245563;28;20025;-64
2022/03/14 05:04:54;;;;;;;53.00;24.35;;;;;;;;;;6245100;28;20485;-64
2022/03/14 05:07:54;;;;;;;54.70;25.90;;;;;;;;;;6245948;28;20358;-64
2022/03/14 05:10:54;;;;;;;55.75;27.98;;;;;;;;;;6235021;28;20496;-64
2022/03/14 05:13:54;;;;;;;63.35;29.70;;;;;;;;;;6220801;28;20068;-64
2022/03/14 05:16:55;;;;;;;62.35;27.33;;;;;;;;;;6221202;28;20037;-64
2022/03/14 05:19:55;;;;;;;51.00;25.80;;;;;;;;;;6232660;28;20364;-64
2022/03/14 05:22:55;;;;;;;53.90;25.80;;;;;;;;;;6245312;28;20023;-64
2022/03/14 05:25:56;;;;;;;57.28;27.02;;;;;;;;;;6245490;28;20025;-64
2022/03/14 05:28:57;;;;;;;61.75;26.05;;;;;;;;;;6239870;28;20025;-64
2022/03/14 05:31:58;;;;;;;41.63;17.50;;;;;;;;;;6243692;28;20323;-65
2022/03/14 05:34:58;;;;;;;41.92;20.13;;;;;;;;;;6240513;28;20427;-65
2022/03/14 05:37:58;;;;;;;57.80;24.67;;;;;;;;;;6239626;28;20028;-65
2022/03/14 05:40:58;;;;;;;55.83;25.17;;;;;;;;;;6237658;28;20112;-65
2022/03/14 05:43:59;;;;;;;57.85;25.33;;;;;;;;;;6243470;28;20021;-65
2022/03/14 05:46:59;;;;;;;39.17;18.17;;;;;;;;;;6243952;28;20009;-65
2022/03/14 05:49:59;;;;;;;42.25;21.30;;;;;;;;;;6244187;28;20014;-65
2022/03/14 05:53:01;;;;;;;60.60;26.05;;;;;;;;;;6225814;28;20041;-65
2022/03/14 05:56:01;;;;;;;50.93;25.13;;;;;;;;;;6245924;28;20072;-65
2022/03/14 05:59:02;;;;;;;66.32;31.13;;;;;;;;;;6244206;28;20440;-64
2022/03/14 06:02:03;;;;;;;69.85;32.15;;;;;;;;;;6243797;28;20037;-64
2022/03/14 06:05:03;;;;;;;103.00;49.85;;;;;;;;;;6244286;28;20037;-64
2022/03/14 06:08:04;;;;;;;143.13;58.08;;;;;;;;;;6238331;28;20036;-64
2022/03/14 06:11:08;;;;;;;111.55;51.95;;;;;;;;;;6233838;28;20025;-64
2022/03/14 06:14:08;;;;;;;130.07;59.80;;;;;;;;;;6235176;28;20035;-65
2022/03/14 06:17:09;;;;;;;118.53;61.25;;;;;;;;;;6217781;28;20666;-65
2022/03/14 06:20:10;;;;;;;120.28;57.13;;;;;;;;;;6240060;28;20028;-65
2022/03/14 06:23:10;;;;;;;117.00;58.58;;;;;;;;;;6241893;28;20021;-65
2022/03/14 06:26:10;;;;;;;77.07;39.95;;;;;;;;;;6242858;28;20036;-66
2022/03/14 06:29:11;;;;;;;71.97;37.67;;;;;;;;;;6238714;28;20499;-66
2022/03/14 06:32:11;;;;;;;68.97;33.63;;;;;;;;;;6237254;28;20482;-66
2022/03/14 06:35:13;;;;;;;67.78;37.13;;;;;;;;;;6225407;28;20037;-66
2022/03/14 06:38:13;;;;;;;63.25;29.65;;;;;;;;;;6239413;28;20064;-66
2022/03/14 06:41:14;;;;;;;75.43;36.53;;;;;;;;;;6237947;28;20025;-66
2022/03/14 06:44:14;;;;;;;59.22;31.70;;;;;;;;;;6236970;28;20059;-66
2022/03/14 06:47:15;;;;;;;59.30;31.85;;;;;;;;;;6242586;28;20017;-65
2022/03/14 06:50:16;;;;;;;57.35;29.55;;;;;;;;;;6242023;28;20109;-65
2022/03/14 06:53:17;;;;;;;57.57;29.40;;;;;;;;;;6229481;28;20050;-65
2022/03/14 06:56:18;;;;;;;41.97;24.30;;;;;;;;;;6215522;28;20065;-65
2022/03/14 06:59:18;;;;;;;37.97;22.00;;;;;;;;;;6236266;28;20282;-65
2022/03/14 07:02:18;;;;;;;41.75;24.15;;;;;;;;;;6229790;28;20076;-67
2022/03/14 07:05:20;;;;;;;35.22;20.95;;;;;;;;;;6228913;28;20031;-67
2022/03/14 07:08:20;;;;;;;45.92;24.80;;;;;;;;;;6237711;28;20028;-67
2022/03/14 07:11:20;;;;;;;47.35;26.85;;;;;;;;;;6228067;28;20021;-67
2022/03/14 07:14:21;;;;;;;49.00;24.17;;;;;;;;;;6241171;28;20041;-67
2022/03/14 07:17:22;;;;;;;44.63;23.13;;;;;;;;;;6238983;28;20618;-67
2022/03/14 07:20:23;;;;;;;45.75;23.55;;;;;;;;;;6228902;28;20602;-67
2022/03/14 07:23:23;;;;;;;41.13;22.92;;;;;;;;;;6224833;28;20188;-67
2022/03/14 07:26:24;;;;;;;42.50;23.60;;;;;;;;;;6218342;28;20298;-67
2022/03/14 07:29:24;;;;;;;40.60;21.95;;;;;;;;;;6232034;28;20040;-67
2022/03/14 07:32:24;;;;;;;49.22;23.75;;;;;;;;;;6239891;28;20017;-67
2022/03/14 07:35:26;;;;;;;46.90;25.90;;;;;;;;;;6240782;28;20099;-67
2022/03/14 07:38:26;;;;;;;48.92;25.75;;;;;;;;;;6241449;28;20051;-67
2022/03/14 07:41:26;;;;;;;40.35;22.08;;;;;;;;;;6242716;28;20017;-67
2022/03/14 07:44:26;;;;;;;45.17;22.58;;;;;;;;;;6230231;28;20143;-67
2022/03/14 07:47:27;;;;;;;41.03;22.27;;;;;;;;;;6221427;28;20117;-67
2022/03/14 07:50:27;;;;;;;39.90;21.25;;;;;;;;;;6224487;28;20029;-67
2022/03/14 07:53:28;;;;;;;40.00;21.73;;;;;;;;;;6240001;28;20045;-67
2022/03/14 07:56:28;;;;;;;40.25;22.38;;;;;;;;;;6240493;28;20058;-67
2022/03/14 07:59:28;;;;;;;39.08;20.63;;;;;;;;;;6245605;28;20022;-68
2022/03/14 08:02:28;;;;;;;35.33;19.63;;;;;;;;;;6242945;28;20017;-68
2022/03/14 08:05:29;;;;;;;40.40;20.23;;;;;;;;;;6238889;28;20322;-67
2022/03/14 08:08:29;;;;;;;37.17;18.02;;;;;;;;;;6242165;28;20396;-67
2022/03/14 08:11:29;;;;;;;33.53;16.77;;;;;;;;;;6238921;28;20035;-67
2022/03/14 08:14:30;;;;;;;34.50;18.42;;;;;;;;;;6238712;28;20382;-68
2022/03/14 08:17:30;;;;;;;38.13;17.63;;;;;;;;;;6228287;28;20040;-67
2022/03/14 08:20:32;;;;;;;27.85;15.18;;;;;;;;;;6234924;28;20021;-67
2022/03/14 08:23:32;;;;;;;26.70;13.70;;;;;;;;;;6230966;28;20057;-67
2022/03/14 08:26:33;;;;;;;27.60;15.30;;;;;;;;;;6238162;28;20045;-67
2022/03/14 08:29:33;;;;;;;28.75;15.68;;;;;;;;;;6244176;28;20022;-67
2022/03/14 08:32:34;;;;;;;32.45;15.80;;;;;;;;;;6244977;28;20029;-68
2022/03/14 08:35:35;;;;;;;27.40;13.98;;;;;;;;;;6233468;28;20404;-67
2022/03/14 08:38:35;;;;;;;30.50;14.13;;;;;;;;;;6244324;28;20017;-67
2022/03/14 08:41:36;;;;;;;21.90;11.68;;;;;;;;;;6240650;28;20461;-68
2022/03/14 08:44:37;;;;;;;23.20;14.03;;;;;;;;;;6232992;28;20024;-67
2022/03/14 08:47:37;;;;;;;32.17;17.02;;;;;;;;;;6238781;28;20045;-68
2022/03/14 08:50:38;;;;;;;29.30;15.32;;;;;;;;;;6243954;28;20032;-68
2022/03/14 08:53:38;;;;;;;31.60;15.30;;;;;;;;;;6238457;28;20401;-68
2022/03/14 08:56:39;;;;;;;37.45;17.10;;;;;;;;;;6242010;28;20028;-68
2022/03/14 08:59:39;;;;;;;35.17;18.50;;;;;;;;;;6245779;28;20454;-68
2022/03/14 09:02:39;;;;;;;29.53;14.50;;;;;;;;;;6240301;28;20431;-67
2022/03/14 09:05:40;;;;;;;31.15;16.02;;;;;;;;;;6240515;28;20263;-67
2022/03/14 09:08:40;;;;;;;29.92;16.15;;;;;;;;;;6245370;28;20017;-67
2022/03/14 09:11:40;;;;;;;32.17;18.30;;;;;;;;;;6244835;28;20032;-67
2022/03/14 09:14:41;;;;;;;29.00;15.90;;;;;;;;;;6243854;28;20280;-67
2022/03/14 09:18:00;;;;;;;24.67;14.13;;;;;;;;;;6227396;28;20272;-67
2022/03/14 09:21:01;;;;;;;22.17;10.52;;;;;;;;;;6222304;28;20102;-67
2022/03/14 09:24:01;;;;;;;24.67;12.70;;;;;;;;;;6218711;28;20207;-67
2022/03/14 09:27:02;;;;;;;25.20;12.38;;;;;;;;;;6227660;28;20040;-67
2022/03/14 09:30:02;;;;;;;28.27;12.60;;;;;;;;;;6235300;28;20030;-67
2022/03/14 09:33:03;;;;;;;25.98;14.15;;;;;;;;;;6229477;28;20080;-67
2022/03/14 09:36:03;;;;;;;23.05;12.65;;;;;;;;;;6224484;28;20029;-67
2022/03/14 09:39:04;;;;;;;32.70;14.20;;;;;;;;;;6228243;28;20032;-67
2022/03/14 09:42:08;;;;;;;23.55;13.85;;;;;;;;;;6223207;28;20038;-67
2022/03/14 09:45:08;;;;;;;29.08;13.23;;;;;;;;;;6240706;28;20487;-67
2022/03/14 09:48:11;;;;;;;27.80;13.73;;;;;;;;;;6245246;28;20032;-67
2022/03/14 09:51:12;;;;;;;29.15;14.60;;;;;;;;;;6245122;28;20500;-67
2022/03/14 09:54:12;;;;;;;22.17;11.70;;;;;;;;;;6243904;28;20050;-67
2022/03/14 09:57:14;;;;;;;25.60;11.82;;;;;;;;;;6240574;28;20076;-67
2022/03/14 10:00:14;;;;;;;19.60;10.85;;;;;;;;;;6223645;28;20022;-67
2022/03/14 10:03:16;;;;;;;19.58;10.68;;;;;;;;;;6244270;28;20076;-67
2022/03/14 10:06:17;;;;;;;18.90;9.93;;;;;;;;;;6237029;28;20552;-67
2022/03/14 10:09:18;;;;;;;18.90;10.00;;;;;;;;;;6222402;28;20021;-67
2022/03/14 10:12:18;;;;;;;20.52;10.90;;;;;;;;;;6237798;28;20476;-67
2022/03/14 10:15:22;;;;;;;18.17;9.27;;;;;;;;;;6227364;28;20372;-67
2022/03/14 10:18:23;;;;;;;17.58;9.55;;;;;;;;;;6235551;28;20029;-67
2022/03/14 10:21:31;;;;;;;20.52;9.75;;;;;;;;;;6242916;28;20024;-67
2022/03/14 10:24:32;;;;;;;14.63;8.52;;;;;;;;;;6223801;28;20025;-67
2022/03/14 10:27:39;;;;;;;15.82;7.55;;;;;;;;;;6230753;28;20048;-67
2022/03/14 10:30:41;;;;;;;11.70;5.43;;;;;;;;;;6220765;28;20026;-67
2022/03/14 10:33:42;;;;;;;13.35;8.05;;;;;;;;;;6221820;28;20018;-67
2022/03/14 10:36:49;;;;;;;10.57;5.63;;;;;;;;;;6217350;28;20037;-67
2022/03/14 10:39:55;;;;;;;10.70;4.95;;;;;;;;;;6228230;28;20036;-67
2022/03/14 10:42:56;;;;;;;11.07;6.30;;;;;;;;;;6235244;28;20030;-67
2022/03/14 10:45:57;;;;;;;13.50;5.72;;;;;;;;;;6240948;28;20025;-67
2022/03/14 10:48:58;;;;;;;13.40;5.68;;;;;;;;;;6218540;28;20072;-67
2022/03/14 10:52:03;;;;;;;12.07;5.70;;;;;;;;;;6218685;28;20076;-67
2022/03/14 10:55:11;;;;;;;13.57;6.80;;;;;;;;;;6241234;28;20037;-67
2022/03/14 10:58:13;;;;;;;14.35;7.03;;;;;;;;;;6244341;28;20558;-67
2022/03/14 11:01:13;;;;;;;;;;;;;;;;;;6244703;28;20036;-67
2022/03/14 11:04:14;;;;;;;12.65;7.07;;;;;;;;;;6243268;28;19948;-67
2022/03/14 11:07:15;;;;;;;10.15;5.13;;;;;;;;;;6243716;28;20035;-67
2022/03/14 11:10:15;;;;;;;11.68;5.82;;;;;;;;;;6240439;28;20285;-67
2022/03/14 11:13:16;;;;;;;12.85;5.88;;;;;;;;;;6232652;28;20116;-67
2022/03/14 11:16:27;;;;;;;10.90;5.43;;;;;;;;;;6238955;28;20104;-67
2022/03/14 11:19:27;;;;;;;11.90;6.18;;;;;;;;;;6217751;28;20021;-67
2022/03/14 11:22:28;;;;;;;12.40;5.47;;;;;;;;;;6220412;28;20029;-67
2022/03/14 11:25:29;;;;;;;11.40;5.57;;;;;;;;;;6229488;28;20466;-67
2022/03/14 11:28:32;;;;;;;12.10;5.85;;;;;;;;;;6241484;28;20017;-67
2022/03/14 11:31:32;;;;;;;10.27;6.28;;;;;;;;;;6235395;28;20024;-67
2022/03/14 11:34:34;;;;;;;9.32;4.45;;;;;;;;;;6232634;28;20029;-67
2022/03/14 11:37:34;;;;;;;12.90;6.43;;;;;;;;;;6225128;28;20026;-67
2022/03/14 11:40:35;;;;;;;13.25;6.75;;;;;;;;;;6229730;28;20052;-67
2022/03/14 11:43:40;;;;;;;11.17;6.60;;;;;;;;;;6224661;28;20013;-67
2022/03/14 11:46:41;;;;;;;13.80;7.20;;;;;;;;;;6223200;28;20762;-67
2022/03/14 11:49:41;;;;;;;13.10;6.97;;;;;;;;;;6231936;28;20438;-67
2022/03/14 11:52:42;;;;;;;14.10;6.65;;;;;;;;;;6246504;28;20131;-67
2022/03/14 11:55:49;;;;;;;12.95;5.57;;;;;;;;;;6234497;28;20468;-67
2022/03/14 11:58:50;;;;;;;13.57;6.28;;;;;;;;;;6223724;28;20432;-67
2022/03/14 12:01:51;;;;;;;14.55;6.53;;;;;;;;;;6227487;28;20029;-67
2022/03/14 12:04:59;;;;;;;9.35;5.70;;;;;;;;;;6235703;28;20358;-67
2022/03/14 12:08:00;;;;;;;12.05;4.82;;;;;;;;;;6239000;28;20014;-67
2022/03/14 12:11:19;;;;;;;14.87;7.93;;;;;;;;;;6236213;28;20496;-67
2022/03/14 12:14:46;;;;;;;9.70;5.22;;;;;;;;;;6226835;28;20429;-67
2022/03/14 12:17:48;;;;;;;15.65;7.53;;;;;;;;;;6238423;28;20035;-67
2022/03/14 12:20:51;;;;;;;15.07;7.72;;;;;;;;;;6240885;28;20044;-67
2022/03/14 12:23:51;;;;;;;13.15;6.78;;;;;;;;;;6228245;28;20018;-67
2022/03/14 12:26:58;;;;;;;13.63;6.72;;;;;;;;;;6226775;28;20029;-67
2022/03/14 12:29:59;;;;;;;11.40;6.70;;;;;;;;;;6228559;28;20105;-67
2022/03/14 12:33:02;;;;;;;15.23;6.72;;;;;;;;;;6229520;28;20039;-67
2022/03/14 12:36:22;;;;;;;12.40;5.70;;;;;;;;;;6238360;28;20017;-67
2022/03/14 12:39:24;;;;;;;14.75;6.70;;;;;;;;;;6236603;28;20028;-67
2022/03/14 12:42:25;;;;;;;14.30;7.35;;;;;;;;;;6233456;28;20067;-67
2022/03/14 12:45:29;;;;;;;19.13;8.18;;;;;;;;;;6224974;28;20018;-67
2022/03/14 12:48:31;;;;;;;17.42;6.78;;;;;;;;;;6213868;28;20017;-67
2022/03/14 12:51:38;;;;;;;15.27;9.55;;;;;;;;;;6236562;28;20014;-67
2022/03/14 12:54:38;;;;;;;16.23;8.13;;;;;;;;;;6236996;28;20378;-67
2022/03/14 12:57:40;;;;;;;14.70;7.60;;;;;;;;;;6235375;28;20018;-67
2022/03/14 13:00:40;;;;;;;18.48;8.52;;;;;;;;;;6235798;28;20029;-67
2022/03/14 13:03:43;;;;;;;13.73;7.63;;;;;;;;;;6230791;28;20022;-67
2022/03/14 13:06:48;;;;;;;15.50;8.68;;;;;;;;;;6234510;28;20045;-67
2022/03/14 13:09:56;;;;;;;18.88;7.90;;;;;;;;;;6230159;28;20075;-67
2022/03/14 13:12:56;;;;;;;15.25;9.30;;;;;;;;;;6230022;28;20076;-67
2022/03/14 13:16:07;;;;;;;14.60;8.43;;;;;;;;;;6218959;28;20075;-67
2022/03/14 13:19:14;;;;;;;17.70;7.95;;;;;;;;;;6223127;28;20057;-67
2022/03/14 13:22:15;;;;;;;12.20;6.95;;;;;;;;;;6220537;28;20057;-67
2022/03/14 13:25:34;;;;;;;12.50;6.45;;;;;;;;;;6220046;28;20026;-67
2022/03/14 13:28:37;;;;;;;14.95;7.15;;;;;;;;;;6240613;28;20024;-67
2022/03/14 13:31:42;;;;;;;12.63;7.13;;;;;;;;;;6238046;28;20034;-67
2022/03/14 13:34:43;;;;;;;11.88;6.82;;;;;;;;;;6243459;28;20358;-67
2022/03/14 13:37:44;;;;;;;14.15;6.45;;;;;;;;;;6238908;28;20026;-67
2022/03/14 13:40:45;;;;;;;15.90;7.53;;;;;;;;;;6230262;28;20087;-67
2022/03/14 13:43:46;;;;;;;12.93;7.33;;;;;;;;;;6240406;28;20014;-67
2022/03/14 13:46:50;;;;;;;13.97;7.00;;;;;;;;;;6229816;28;20050;-67
2022/03/14 13:50:03;;;;;;;15.65;7.68;;;;;;;;;;6230103;28;20433;-67
2022/03/14 13:53:03;;;;;;;19.75;7.22;;;;;;;;;;6218614;28;20509;-67
2022/03/14 13:56:03;;;;;;;16.17;9.07;;;;;;;;;;6223589;28;20071;-67
2022/03/14 13:59:04;;;;;;;13.50;8.30;;;;;;;;;;6225440;28;20380;-67
2022/03/14 14:02:05;;;;;;;21.17;8.70;;;;;;;;;;6229103;28;20028;-67
2022/03/14 14:05:12;;;;;;;14.85;7.95;;;;;;;;;;6221455;28;20152;-67
2022/03/14 14:08:28;;;;;;;15.45;7.30;;;;;;;;;;6244493;28;20557;-67
2022/03/14 14:11:28;;;;;;;18.92;9.48;;;;;;;;;;6244364;28;20492;-67
2022/03/14 14:14:29;;;;;;;11.73;6.57;;;;;;;;;;6244243;28;20025;-67
2022/03/14 14:17:34;;;;;;;13.70;6.78;;;;;;;;;;6244019;28;20013;-67
2022/03/14 14:20:34;;;;;;;15.25;6.88;;;;;;;;;;6244655;28;20029;-68
2022/03/14 14:23:37;;;;;;;11.33;5.27;;;;;;;;;;6244197;28;20024;-68
2022/03/14 14:26:38;;;;;;;6.65;3.42;;;;;;;;;;6240980;28;20104;-68
2022/03/14 14:29:42;;;;;;;7.67;4.10;;;;;;;;;;6203334;28;20396;-68
2022/03/14 14:32:42;;;;;;;11.43;5.70;;;;;;;;;;6230711;28;20025;-68
2022/03/14 14:35:44;;;;;;;14.03;5.07;;;;;;;;;;6240167;28;20037;-68
2022/03/14 14:38:45;;;;;;;12.52;5.18;;;;;;;;;;6243589;28;20017;-68
2022/03/14 14:41:45;;;;;;;7.30;4.13;;;;;;;;;;6243640;28;20025;-68
2022/03/14 14:44:45;;;;;;;11.07;5.53;;;;;;;;;;6243498;28;20373;-68
2022/03/14 14:47:46;;;;;;;9.80;6.10;;;;;;;;;;6243778;28;20057;-68
2022/03/14 14:50:47;;;;;;;9.63;5.30;;;;;;;;;;6243802;28;20014;-68
2022/03/14 14:53:47;;;;;;;8.93;4.93;;;;;;;;;;6242480;28;20048;-68
2022/03/14 14:56:48;;;;;;;9.07;4.80;;;;;;;;;;6239344;28;20401;-68
2022/03/14 14:59:48;;;;;;;7.77;4.23;;;;;;;;;;6234099;28;20028;-68
2022/03/14 15:02:48;;;;;;;9.43;5.13;;;;;;;;;;6218642;28;20018;-68
2022/03/14 15:05:50;;;;;;;7.40;4.90;;;;;;;;;;6226767;28;20609;-68
2022/03/14 15:08:50;;;;;;;9.20;4.82;;;;;;;;;;6241882;28;20018;-68
2022/03/14 15:11:51;;;;;;;8.63;4.23;;;;;;;;;;6236788;28;20026;-68
2022/03/14 15:14:51;;;;;;;9.67;4.70;;;;;;;;;;6220562;28;20018;-68
2022/03/14 15:17:52;;;;;;;9.90;5.40;;;;;;;;;;6241837;28;20064;-68
2022/03/14 15:20:52;;;;;;;9.73;5.53;;;;;;;;;;6236585;28;20353;-68
2022/03/14 15:23:52;;;;;;;15.37;6.63;;;;;;;;;;6219021;28;20206;-68
2022/03/14 15:26:55;;;;;;;6.17;4.43;;;;;;;;;;6223877;28;20065;-68
2022/03/14 15:29:56;;;;;;;7.78;4.53;;;;;;;;;;6223052;28;20026;-68
2022/03/14 15:32:58;;;;;;;12.70;6.13;;;;;;;;;;6241799;28;20433;-68
2022/03/14 15:35:58;;;;;;;;;;;;;;;;;;6243016;28;20025;-68
2022/03/14 15:38:59;;;;;;;8.43;4.65;;;;;;;;;;6243126;28;19909;-68
2022/03/14 15:42:00;;;;;;;9.77;6.43;;;;;;;;;;6243104;28;20013;-68
2022/03/14 15:45:01;;;;;;;15.83;7.00;;;;;;;;;;6243036;28;20044;-68
2022/03/14 15:48:01;;;;;;;11.07;6.03;;;;;;;;;;6230759;28;20026;-68
2022/03/14 15:51:02;;;;;;;11.93;6.37;;;;;;;;;;6220817;28;20044;-68
2022/03/14 15:54:02;;;;;;;30.47;13.60;;;;;;;;;;6217124;28;20042;-68
2022/03/14 15:57:03;;;;;;;25.37;11.90;;;;;;;;;;6238078;28;20075;-68
2022/03/14 16:00:05;;;;;;;37.10;21.43;;;;;;;;;;6243526;28;20042;-71
2022/03/14 16:03:06;;;;;;;27.13;13.73;;;;;;;;;;6242301;28;20080;-69
2022/03/14 16:06:06;;;;;;;18.53;8.63;;;;;;;;;;6242607;28;20096;-68
2022/03/14 16:09:09;;;;;;;13.37;8.10;;;;;;;;;;6242215;28;20032;-68
2022/03/14 16:12:10;;;;;;;14.07;8.45;;;;;;;;;;6243659;28;20037;-68
2022/03/14 16:15:11;;;;;;;15.40;8.27;;;;;;;;;;6245701;28;20112;-68
2022/03/14 16:18:12;;;;;;;20.88;8.93;;;;;;;;;;6245556;28;20088;-68
2022/03/14 16:21:12;;;;;;;14.52;7.25;;;;;;;;;;6239619;28;20033;-68
2022/03/14 16:24:12;;;;;;;22.10;9.13;;;;;;;;;;6239502;28;20033;-68
2022/03/14 16:27:13;;;;;;;129.63;46.15;;;;;;;;;;6244065;28;20147;-68
2022/03/14 16:30:13;;;;;;;138.90;49.38;;;;;;;;;;6242606;28;20105;-68
2022/03/14 16:33:14;;;;;;;125.88;43.75;;;;;;;;;;6226794;28;20100;-68
2022/03/14 16:36:14;;;;;;;116.40;39.22;;;;;;;;;;6240072;28;20141;-68
2022/03/14 16:39:15;;;;;;;152.32;49.70;;;;;;;;;;6239064;28;20524;-68
2022/03/14 16:42:15;;;;;;;105.85;34.83;;;;;;;;;;6233792;28;20029;-68
2022/03/14 16:45:17;;;;;;;74.05;24.85;;;;;;;;;;6229612;28;20059;-68
2022/03/14 16:48:21;;;;;;;34.28;12.93;;;;;;;;;;6231844;28;20030;-68
2022/03/14 16:51:21;;;;;;;18.02;8.90;;;;;;;;;;6224576;28;20022;-68
2022/03/14 16:54:21;;;;;;;18.23;7.60;;;;;;;;;;6237257;28;20301;-68
2022/03/14 16:57:22;;;;;;;17.48;8.43;;;;;;;;;;6246439;28;20025;-68
2022/03/14 17:00:22;;;;;;;17.92;8.23;;;;;;;;;;6237111;28;20022;-68
2022/03/14 17:03:22;;;;;;;27.00;10.88;;;;;;;;;;6244452;28;20014;-68
2022/03/14 17:06:22;;;;;;;17.90;9.63;;;;;;;;;;6240679;28;20060;-68
2022/03/14 17:09:23;;;;;;;25.33;13.48;;;;;;;;;;6244405;28;20021;-67
2022/03/14 17:12:23;;;;;;;32.03;15.88;;;;;;;;;;6245412;28;20142;-67
2022/03/14 17:15:24;;;;;;;35.40;17.65;;;;;;;;;;6244307;28;20067;-68
2022/03/14 17:18:24;;;;;;;47.60;23.58;;;;;;;;;;6244251;28;20104;-67
2022/03/14 17:21:24;;;;;;;38.45;20.00;;;;;;;;;;6242879;28;20017;-67
2022/03/14 17:24:24;;;;;;;38.10;19.27;;;;;;;;;;6244845;28;20257;-67
2022/03/14 17:27:25;;;;;;;43.47;20.52;;;;;;;;;;6245701;28;20028;-67
2022/03/14 17:30:25;;;;;;;44.28;20.25;;;;;;;;;;6243908;28;20025;-67
2022/03/14 17:33:26;;;;;;;101.18;49.33;;;;;;;;;;6242895;28;20479;-67
2022/03/14 17:36:26;;;;;;;92.95;45.90;;;;;;;;;;6245004;28;20044;-67
2022/03/14 17:39:26;;;;;;;93.07;47.53;;;;;;;;;;6236667;28;20018;-67
2022/03/14 17:42:26;;;;;;;94.05;45.83;;;;;;;;;;6225466;28;20440;-67